»·PEaware :: N1671Q KIFP-KVGT

N1671Q :: KIFP-KVGT

FLIGHT INFORMATION

Flight Status: Arrived
Operator: Privately registered:
United States
More flights under this callsign
Pilot: Gary H. (18965)
Aircraft: CESSNA 172 SKYHAWK
(C172)
More flights by this aircraft type
Origin: KIFP Laughlin/Bullhead Intl
United States
Destination: KVGT North Las Vegas
United States
More flights between these airports :: More routes between these airports
Route: +REQ CORTEZ
File this flight plan on PilotEdge
Remarks:
Altitude:
(Current/Filed)
0ft
Speed:
(Current/Filed)
0kts
Departed: 08-Jul-18 12:43 PM
Arrived: 08-Jul-18 01:32 PM
Distance/Time
Traveled:
70nm/0:49
Distance/Time
To Go:
Arrived

Flight Plot

Page will automatically refresh every two minutes.

Flight plan parsing failed; only flown route is shown


Map Options




Map Legend


Flown Route
Filed Route
Departure Airport
Arrival Airport
Navaid (VOR, NDB)
Fix

Horizontal Profiles

Position Reports

Time Latitude Longitude Heading Altitude Ground
Speed
08-Jul-18 12:36 35.159581 -114.556897 264 675ft 0kts
08-Jul-18 12:37 35.159581 -114.556897 264 675ft 0kts
08-Jul-18 12:38 35.159581 -114.556897 264 675ft 0kts
08-Jul-18 12:39 35.159526 -114.557383 265 670ft 9kts
08-Jul-18 12:40 35.164557 -114.558686 355 644ft 26kts
08-Jul-18 12:41 35.166314 -114.559025 261 637ft 0kts
08-Jul-18 12:42 35.166314 -114.559025 261 637ft 0kts
08-Jul-18 12:43 35.166215 -114.559693 256 631ft 11kts
08-Jul-18 12:44 35.159087 -114.559739 176 749ft 70kts
08-Jul-18 12:45 35.139027 -114.553586 110 1382ft 90kts
08-Jul-18 12:46 35.159715 -114.542790 343 1841ft 111kts
08-Jul-18 12:47 35.189675 -114.554907 339 2284ft 101kts
08-Jul-18 12:48 35.215839 -114.566752 336 2541ft 100kts
08-Jul-18 12:49 35.241757 -114.578521 336 2738ft 99kts
08-Jul-18 12:50 35.268135 -114.588649 346 2920ft 100kts
08-Jul-18 12:51 35.294488 -114.594665 348 3090ft 100kts
08-Jul-18 12:52 35.321708 -114.601288 345 3282ft 99kts
08-Jul-18 12:53 35.348938 -114.607371 351 3462ft 100kts
08-Jul-18 12:54 35.376285 -114.612902 349 3580ft 103kts
08-Jul-18 12:55 35.405958 -114.617878 349 3592ft 110kts
08-Jul-18 12:56 35.436888 -114.622540 349 3570ft 114kts
08-Jul-18 12:57 35.468588 -114.628287 350 3525ft 116kts
08-Jul-18 12:58 35.500436 -114.633879 351 3501ft 115kts
08-Jul-18 12:59 35.532378 -114.638838 350 3490ft 114kts
08-Jul-18 13:00 35.562886 -114.644875 352 3524ft 110kts
08-Jul-18 13:01 35.592816 -114.649166 353 3550ft 107kts
08-Jul-18 13:02 35.622111 -114.655463 347 3544ft 106kts
08-Jul-18 13:03 35.651030 -114.662960 337 3530ft 106kts
08-Jul-18 13:04 35.676605 -114.681147 329 3508ft 107kts
08-Jul-18 13:05 35.703631 -114.696110 338 3494ft 106kts
08-Jul-18 13:06 35.732411 -114.704291 357 3478ft 107kts
08-Jul-18 13:07 35.762118 -114.702850 4 3470ft 106kts
08-Jul-18 13:08 35.791604 -114.698638 6 3460ft 106kts
08-Jul-18 13:09 35.821093 -114.694231 7 3466ft 105kts
08-Jul-18 13:10 35.850284 -114.689615 5 3479ft 104kts
08-Jul-18 13:11 35.879452 -114.687840 349 3486ft 105kts
08-Jul-18 13:12 35.903389 -114.697937 332 3544ft 99kts
08-Jul-18 13:13 35.928176 -114.713581 332 3526ft 101kts
08-Jul-18 13:14 35.953680 -114.727694 336 3527ft 102kts
08-Jul-18 13:15 35.980450 -114.739287 339 3501ft 102kts
08-Jul-18 13:16 36.007704 -114.748754 342 3531ft 100kts
08-Jul-18 13:17 36.035472 -114.757314 352 3472ft 106kts
08-Jul-18 13:18 36.056249 -114.759522 352 3458ft 111kts
08-Jul-18 13:19 36.085180 -114.766306 312 3545ft 101kts
08-Jul-18 13:20 36.097085 -114.797763 286 3549ft 102kts
08-Jul-18 13:21 36.107427 -114.830175 287 3578ft 102kts
08-Jul-18 13:22 36.118748 -114.862245 289 3540ft 102kts
08-Jul-18 13:23 36.129328 -114.894737 291 3506ft 102kts
08-Jul-18 13:24 36.142409 -114.926165 293 3473ft 102kts
08-Jul-18 13:25 36.148681 -114.959686 275 3459ft 99kts
08-Jul-18 13:26 36.151285 -114.993586 272 3446ft 98kts
08-Jul-18 13:27 36.154820 -115.027174 274 3455ft 97kts
08-Jul-18 13:28 36.159013 -115.060348 275 3462ft 97kts
08-Jul-18 13:29 36.163461 -115.093392 278 3467ft 97kts
08-Jul-18 13:30 36.168832 -115.126222 277 3473ft 97kts
08-Jul-18 13:31 36.174967 -115.157310 306 3521ft 91kts
08-Jul-18 13:32 36.194730 -115.177377 310 2482ft 89kts
08-Jul-18 13:33 36.207528 -115.193701 321 2181ft 18kts
08-Jul-18 13:34 36.207931 -115.195344 155 2185ft 4kts
08-Jul-18 13:35 36.206022 -115.193486 161 2178ft 7kts
08-Jul-18 13:36 36.205500 -115.193597 86 2177ft 0kts

Navigation Log

Ident Type
Flight plan parsing failed, navigation log unavailable